createdAt,value
2017-12-03T00:00:20.430Z,713.52
2017-12-03T00:01:21.058Z,713.49
2017-12-03T00:02:21.360Z,713.50
2017-12-03T00:04:34.319Z,713.50
2017-12-03T00:05:22.749Z,713.48
2017-12-03T00:06:23.202Z,713.46
2017-12-03T00:07:24.066Z,713.46
2017-12-03T00:08:24.137Z,713.47
2017-12-03T00:10:25.056Z,713.54
2017-12-03T00:12:25.989Z,713.42
2017-12-03T00:13:26.453Z,713.42
2017-12-03T00:14:27.134Z,713.47
2017-12-03T00:15:27.379Z,713.51
2017-12-03T00:16:27.842Z,713.44
2017-12-03T00:17:28.300Z,713.47
2017-12-03T00:18:28.794Z,713.48
2017-12-03T00:19:29.252Z,713.50
2017-12-03T00:20:29.694Z,713.41
2017-12-03T00:22:30.652Z,713.44
2017-12-03T00:24:31.600Z,713.38
2017-12-03T00:25:32.038Z,713.31
2017-12-03T00:26:32.473Z,713.37
2017-12-03T00:27:33.190Z,713.40
2017-12-03T00:28:33.394Z,713.36
2017-12-03T00:29:33.898Z,713.35
2017-12-03T00:30:34.325Z,713.35
2017-12-03T00:31:34.788Z,713.32
2017-12-03T00:32:35.252Z,713.35
2017-12-03T00:33:35.714Z,713.31
2017-12-03T00:34:36.398Z,713.31
2017-12-03T00:35:36.638Z,713.29
2017-12-03T00:36:37.268Z,713.40
2017-12-03T00:37:37.596Z,713.36
2017-12-03T00:38:38.030Z,713.31
2017-12-03T00:39:38.488Z,713.27
2017-12-03T00:40:38.958Z,713.34
2017-12-03T00:42:39.920Z,713.34
2017-12-03T00:43:40.344Z,713.32
2017-12-03T00:46:41.728Z,713.27
2017-12-03T00:47:42.224Z,713.31
2017-12-03T00:48:42.664Z,713.32
2017-12-03T00:50:43.630Z,713.35
2017-12-03T00:51:44.229Z,713.38
2017-12-03T00:52:44.513Z,713.34
2017-12-03T00:53:45.142Z,713.35
2017-12-03T00:54:45.440Z,713.32
2017-12-03T00:55:45.902Z,713.30
2017-12-03T00:56:46.363Z,713.31
2017-12-03T00:57:46.821Z,713.27
2017-12-03T00:58:47.292Z,713.31
2017-12-03T00:59:47.752Z,713.26
2017-12-03T01:00:48.215Z,713.32
2017-12-03T01:03:49.629Z,713.29
2017-12-03T01:06:02.400Z,713.27
2017-12-03T01:06:50.993Z,713.30
2017-12-03T01:07:51.458Z,713.30
2017-12-03T01:08:51.914Z,713.26
2017-12-03T01:09:52.549Z,713.27
2017-12-03T01:11:53.467Z,713.28
2017-12-03T01:12:53.795Z,713.30
2017-12-03T01:13:54.234Z,713.26
2017-12-03T01:14:54.700Z,713.27
2017-12-03T01:15:55.204Z,713.33
2017-12-03T01:16:55.633Z,713.27
2017-12-03T01:17:56.086Z,713.30
2017-12-03T01:18:56.549Z,713.36
2017-12-03T01:19:57.006Z,713.27
2017-12-03T01:21:09.410Z,713.32
2017-12-03T01:21:57.937Z,713.27
2017-12-03T01:22:58.401Z,713.32
2017-12-03T01:23:58.864Z,713.28
2017-12-03T01:24:59.326Z,713.30
2017-12-03T01:25:59.790Z,713.27
2017-12-03T01:27:00.244Z,713.32
2017-12-03T01:29:01.343Z,713.28
2017-12-03T01:31:02.098Z,713.31
2017-12-03T01:33:03.024Z,713.36
2017-12-03T01:34:03.492Z,713.29
2017-12-03T01:35:03.956Z,713.30
2017-12-03T01:39:05.809Z,713.30
2017-12-03T01:40:06.264Z,713.29
2017-12-03T01:42:07.197Z,713.27
2017-12-03T01:43:07.659Z,713.33
2017-12-03T01:44:08.121Z,713.30
2017-12-03T01:47:21.616Z,713.29
2017-12-03T01:48:09.974Z,713.31
2017-12-03T01:49:10.438Z,713.31
2017-12-03T01:50:10.899Z,713.26
2017-12-03T01:53:12.290Z,713.31
2017-12-03T01:54:12.745Z,713.27
2017-12-03T01:55:13.244Z,713.29
2017-12-03T01:56:13.688Z,713.31
2017-12-03T01:57:14.140Z,713.33
2017-12-03T01:58:14.604Z,713.23
2017-12-03T01:59:15.065Z,713.30
2017-12-03T02:00:15.528Z,713.28
2017-12-03T02:01:15.986Z,713.33
2017-12-03T02:02:16.456Z,713.34
2017-12-03T02:04:17.381Z,713.31
2017-12-03T02:05:17.845Z,713.28
2017-12-03T02:06:18.306Z,713.23
2017-12-03T02:07:18.772Z,713.31
2017-12-03T02:08:19.231Z,713.26
2017-12-03T02:09:19.720Z,713.23
2017-12-03T02:10:20.153Z,713.20
2017-12-03T02:11:20.619Z,713.25
2017-12-03T02:12:21.082Z,713.19
2017-12-03T02:13:21.546Z,713.20
2017-12-03T02:14:22.009Z,713.17
2017-12-03T02:15:22.470Z,713.18
2017-12-03T02:16:22.960Z,713.18
2017-12-03T02:17:23.394Z,713.15
2017-12-03T02:18:23.860Z,713.12
2017-12-03T02:19:24.347Z,713.13
2017-12-03T02:20:24.791Z,713.13
2017-12-03T02:21:25.244Z,713.14
2017-12-03T02:22:25.714Z,713.14
2017-12-03T02:23:26.173Z,713.17
2017-12-03T02:24:26.688Z,713.17
2017-12-03T02:25:27.099Z,713.14
2017-12-03T02:26:27.563Z,713.13
2017-12-03T02:27:28.024Z,713.13
2017-12-03T02:28:28.481Z,713.10
2017-12-03T02:30:29.433Z,713.11
2017-12-03T02:31:29.870Z,713.10
2017-12-03T02:32:30.339Z,713.14
2017-12-03T02:33:30.803Z,713.10
2017-12-03T02:34:31.265Z,713.11
2017-12-03T02:35:31.726Z,713.11
2017-12-03T02:36:32.184Z,713.16
2017-12-03T02:37:32.651Z,713.12
2017-12-03T02:38:33.115Z,713.10
2017-12-03T02:39:33.578Z,713.13
2017-12-03T02:40:34.037Z,713.09
2017-12-03T02:41:34.505Z,713.07
2017-12-03T02:42:34.967Z,713.05
2017-12-03T02:43:35.429Z,713.09
2017-12-03T02:45:36.406Z,713.06
2017-12-03T02:46:36.819Z,713.09
2017-12-03T02:47:37.271Z,713.11
2017-12-03T02:48:37.742Z,713.09
2017-12-03T02:49:38.203Z,713.08
2017-12-03T02:50:38.723Z,713.08
2017-12-03T02:51:39.127Z,713.12
2017-12-03T02:52:39.591Z,713.07
2017-12-03T02:53:40.053Z,713.09
2017-12-03T02:54:40.517Z,713.00
2017-12-03T02:55:40.979Z,713.02
2017-12-03T02:56:41.613Z,713.03
2017-12-03T02:57:41.898Z,712.99
2017-12-03T02:58:42.535Z,712.94
2017-12-03T02:59:42.835Z,713.00
2017-12-03T03:01:43.759Z,712.94
2017-12-03T03:02:44.217Z,712.97
2017-12-03T03:04:45.143Z,713.00
2017-12-03T03:05:45.599Z,713.01
2017-12-03T03:06:46.068Z,712.97
2017-12-03T03:07:46.527Z,712.93
2017-12-03T03:09:47.454Z,712.96
2017-12-03T03:12:48.842Z,712.98
2017-12-03T03:13:49.471Z,713.03
2017-12-03T03:17:51.158Z,713.09
2017-12-03T03:18:51.610Z,713.07
2017-12-03T03:19:52.085Z,713.01
2017-12-03T03:21:53.005Z,713.02
2017-12-03T03:22:53.469Z,713.02
2017-12-03T03:24:54.391Z,713.04
2017-12-03T03:25:54.847Z,713.04
2017-12-03T03:26:55.346Z,713.02
2017-12-03T03:27:55.781Z,713.08
2017-12-03T03:28:56.259Z,713.07
2017-12-03T03:29:56.697Z,713.05
2017-12-03T03:30:57.169Z,712.93
2017-12-03T03:32:58.092Z,713.00
2017-12-03T03:33:58.575Z,712.96
2017-12-03T03:34:59.045Z,712.94
2017-12-03T03:37:00.120Z,713.01
2017-12-03T03:38:00.400Z,712.99
2017-12-03T03:39:00.868Z,712.86
2017-12-03T03:40:01.330Z,712.95
2017-12-03T03:42:13.586Z,712.95
2017-12-03T03:43:02.716Z,712.95
2017-12-03T03:44:03.171Z,712.89
2017-12-03T03:45:03.641Z,712.91
2017-12-03T03:46:04.105Z,712.89
2017-12-03T03:47:04.565Z,712.97
2017-12-03T03:48:05.050Z,712.80
2017-12-03T03:49:05.492Z,712.97
2017-12-03T03:50:05.944Z,713.01
2017-12-03T03:51:06.416Z,712.95
2017-12-03T03:52:06.928Z,712.69
2017-12-03T03:53:07.340Z,712.88
2017-12-03T03:54:07.795Z,713.02
2017-12-03T03:55:08.262Z,713.06
2017-12-03T03:56:08.723Z,713.12
2017-12-03T03:58:09.811Z,713.16
2017-12-03T03:59:10.190Z,713.05
2017-12-03T04:00:10.577Z,713.11
2017-12-03T04:01:11.035Z,713.12
2017-12-03T04:03:11.986Z,713.08
2017-12-03T04:04:12.588Z,713.06
2017-12-03T04:05:12.878Z,713.02
2017-12-03T04:06:13.348Z,712.97
2017-12-03T04:07:13.812Z,713.00
2017-12-03T04:08:14.434Z,712.99
2017-12-03T04:09:14.814Z,713.01
2017-12-03T04:10:15.202Z,712.96
2017-12-03T04:11:15.660Z,713.09
2017-12-03T04:12:16.115Z,712.95
2017-12-03T04:13:16.743Z,713.00
2017-12-03T04:14:17.046Z,712.95
2017-12-03T04:15:17.512Z,712.99
2017-12-03T04:16:17.974Z,712.96
2017-12-03T04:17:18.427Z,712.99
2017-12-03T04:20:19.819Z,712.92
2017-12-03T04:21:20.281Z,712.89
2017-12-03T04:22:20.766Z,713.02
2017-12-03T04:24:21.663Z,712.93
2017-12-03T04:25:22.131Z,712.89
2017-12-03T04:26:22.594Z,712.94
2017-12-03T04:28:23.516Z,712.84
2017-12-03T04:30:24.436Z,712.93
2017-12-03T04:31:24.906Z,712.93
2017-12-03T04:32:25.367Z,712.87
2017-12-03T04:33:25.836Z,712.90
2017-12-03T04:35:26.755Z,712.92
2017-12-03T04:36:27.214Z,712.86
2017-12-03T04:37:27.671Z,712.95
2017-12-03T04:38:28.138Z,712.91
2017-12-03T04:39:28.625Z,712.97
2017-12-03T04:40:29.065Z,712.97
2017-12-03T04:41:29.520Z,713.03
2017-12-03T04:42:29.989Z,713.04
2017-12-03T04:43:30.453Z,713.04
2017-12-03T04:44:31.071Z,712.99
2017-12-03T04:45:31.374Z,712.96
2017-12-03T04:46:31.840Z,712.98
2017-12-03T04:47:32.293Z,712.97
2017-12-03T04:49:33.228Z,713.04
2017-12-03T04:52:34.601Z,713.09
2017-12-03T04:53:35.101Z,713.06
2017-12-03T04:54:35.528Z,713.07
2017-12-03T04:55:36.047Z,713.02
2017-12-03T04:56:36.457Z,713.07
2017-12-03T04:57:37.079Z,713.05
2017-12-03T04:58:37.380Z,713.06
2017-12-03T04:59:38.009Z,713.13
2017-12-03T05:00:38.306Z,713.05
2017-12-03T05:01:38.759Z,713.10
2017-12-03T05:02:39.229Z,713.12
2017-12-03T05:03:39.692Z,713.16
2017-12-03T05:04:40.196Z,713.08
2017-12-03T05:05:40.614Z,713.16
2017-12-03T05:06:41.077Z,713.16
2017-12-03T05:07:41.548Z,713.18
2017-12-03T05:08:42.249Z,713.11
2017-12-03T05:09:42.456Z,713.14
2017-12-03T05:12:57.872Z,713.13
2017-12-03T05:13:44.310Z,713.19
2017-12-03T05:14:44.765Z,713.16
2017-12-03T05:15:45.264Z,713.21
2017-12-03T05:16:45.749Z,713.22
2017-12-03T05:17:46.157Z,713.22
2017-12-03T05:18:46.620Z,713.20
2017-12-03T05:19:47.083Z,713.24
2017-12-03T05:22:48.467Z,713.19
2017-12-03T05:23:48.930Z,713.24
2017-12-03T05:24:49.390Z,713.24
2017-12-03T05:25:49.853Z,713.28
2017-12-03T05:27:50.784Z,713.28
2017-12-03T05:28:51.242Z,713.25
2017-12-03T05:29:51.870Z,713.16
2017-12-03T05:30:52.162Z,713.20
2017-12-03T05:31:52.625Z,713.22
2017-12-03T05:33:04.670Z,713.23
2017-12-03T05:33:53.550Z,713.23
2017-12-03T05:35:54.466Z,713.23
2017-12-03T05:41:57.236Z,713.26
2017-12-03T05:42:57.699Z,713.25
2017-12-03T05:43:58.169Z,713.24
2017-12-03T05:44:58.648Z,713.22
2017-12-03T05:45:59.089Z,713.28
2017-12-03T05:46:59.552Z,713.21
2017-12-03T05:48:00.035Z,713.29
2017-12-03T05:49:00.474Z,713.24
2017-12-03T05:50:00.936Z,713.19
2017-12-03T05:51:01.569Z,713.21
2017-12-03T05:52:01.862Z,713.21
2017-12-03T05:53:02.392Z,713.27
2017-12-03T05:54:02.785Z,713.26
2017-12-03T05:55:03.243Z,713.23
2017-12-03T05:56:03.708Z,713.16
2017-12-03T05:58:04.792Z,713.15
2017-12-03T05:59:05.085Z,713.18
2017-12-03T06:02:06.475Z,713.18
2017-12-03T06:03:07.150Z,713.25
2017-12-03T06:04:07.396Z,713.17
2017-12-03T06:05:08.259Z,713.21
2017-12-03T06:06:08.349Z,713.28
2017-12-03T06:07:08.785Z,713.27
2017-12-03T06:08:20.690Z,713.29
2017-12-03T06:09:09.709Z,713.26
2017-12-03T06:10:10.169Z,713.28
2017-12-03T06:11:10.632Z,713.29
2017-12-03T06:12:11.094Z,713.22
2017-12-03T06:13:11.554Z,713.27
2017-12-03T06:14:12.015Z,713.29
2017-12-03T06:15:12.478Z,713.30
2017-12-03T06:16:12.941Z,713.32
2017-12-03T06:17:13.401Z,713.27
2017-12-03T06:19:14.324Z,713.23
2017-12-03T06:20:14.786Z,713.30
2017-12-03T06:22:15.708Z,713.30
2017-12-03T06:24:16.632Z,713.31
2017-12-03T06:25:17.092Z,713.32
2017-12-03T06:26:17.589Z,713.30
2017-12-03T06:27:18.016Z,713.41
2017-12-03T06:28:18.514Z,713.36
2017-12-03T06:29:18.962Z,713.40
2017-12-03T06:30:19.421Z,713.46
2017-12-03T06:31:19.857Z,713.42
2017-12-03T06:32:20.376Z,713.40
2017-12-03T06:33:20.835Z,713.42
2017-12-03T06:34:21.246Z,713.50
2017-12-03T06:35:21.706Z,713.48
2017-12-03T06:36:22.330Z,713.47
2017-12-03T06:37:22.710Z,713.47
2017-12-03T06:39:23.554Z,713.51
2017-12-03T06:40:24.017Z,713.50
2017-12-03T06:41:24.474Z,713.54
2017-12-03T06:42:24.937Z,713.47
2017-12-03T06:43:25.402Z,713.53
2017-12-03T06:45:26.320Z,713.66
2017-12-03T06:47:27.242Z,713.68
2017-12-03T06:48:27.700Z,713.76
2017-12-03T06:49:28.321Z,713.73
2017-12-03T06:50:28.785Z,713.72
2017-12-03T06:51:29.088Z,713.70
2017-12-03T06:52:29.549Z,713.74
2017-12-03T06:53:30.010Z,713.77
2017-12-03T06:54:30.471Z,713.74
2017-12-03T06:55:30.928Z,713.66
2017-12-03T06:56:31.396Z,713.76
2017-12-03T06:57:31.856Z,713.74
2017-12-03T06:58:32.309Z,713.77
2017-12-03T06:59:32.778Z,713.77
2017-12-03T07:00:33.239Z,713.71
2017-12-03T07:01:33.704Z,713.73
2017-12-03T07:02:34.162Z,713.74
2017-12-03T07:03:34.618Z,713.77
2017-12-03T07:04:35.085Z,713.79
2017-12-03T07:06:36.008Z,713.76
2017-12-03T07:07:36.469Z,713.85
2017-12-03T07:08:36.931Z,713.78
2017-12-03T07:09:37.560Z,713.73
2017-12-03T07:10:37.906Z,713.83
2017-12-03T07:11:38.320Z,713.86
2017-12-03T07:12:38.809Z,713.79
2017-12-03T07:13:39.236Z,713.86
2017-12-03T07:14:39.729Z,713.89
2017-12-03T07:17:41.086Z,713.87
2017-12-03T07:18:41.550Z,713.91
2017-12-03T07:19:42.027Z,713.89
2017-12-03T07:20:42.470Z,713.87
2017-12-03T07:21:42.924Z,713.89
2017-12-03T07:22:43.392Z,713.88
2017-12-03T07:23:43.856Z,713.90
2017-12-03T07:24:44.318Z,713.93
2017-12-03T07:26:45.291Z,713.94
2017-12-03T07:28:46.166Z,713.95
2017-12-03T07:29:46.627Z,714.06
2017-12-03T07:30:47.093Z,713.97
2017-12-03T07:31:47.550Z,714.02
2017-12-03T07:32:48.012Z,714.00
2017-12-03T07:35:49.401Z,714.05
2017-12-03T07:36:49.859Z,713.99
2017-12-03T07:37:50.326Z,713.99
2017-12-03T07:38:50.788Z,714.05
2017-12-03T07:39:51.247Z,714.09
2017-12-03T07:40:51.713Z,714.03
2017-12-03T07:41:52.175Z,713.98
2017-12-03T07:42:52.631Z,714.03
2017-12-03T07:43:53.105Z,714.08
2017-12-03T07:44:53.564Z,714.00
2017-12-03T07:46:54.481Z,714.00
2017-12-03T07:47:54.953Z,714.13
2017-12-03T07:48:55.410Z,714.08
2017-12-03T07:49:56.041Z,714.05
2017-12-03T07:50:56.341Z,714.11
2017-12-03T07:53:57.731Z,714.14
2017-12-03T07:54:58.194Z,714.19
2017-12-03T07:55:58.658Z,714.08
2017-12-03T07:56:59.121Z,714.12
2017-12-03T07:57:59.585Z,714.20
2017-12-03T07:59:00.041Z,714.23
2017-12-03T08:00:00.514Z,714.16
2017-12-03T08:01:00.976Z,714.19
2017-12-03T08:02:01.449Z,714.17
2017-12-03T08:03:02.087Z,714.21
2017-12-03T08:04:02.396Z,714.18
2017-12-03T08:05:02.824Z,714.15
2017-12-03T08:06:03.294Z,714.17
2017-12-03T08:08:04.221Z,714.16
2017-12-03T08:09:04.843Z,714.22
2017-12-03T08:11:05.614Z,714.20
2017-12-03T08:12:06.240Z,714.19
2017-12-03T08:13:06.543Z,714.21
2017-12-03T08:14:07.006Z,714.28
2017-12-03T08:15:07.466Z,714.22
2017-12-03T08:17:08.620Z,714.17
2017-12-03T08:19:09.330Z,714.26
2017-12-03T08:20:09.797Z,714.28
2017-12-03T08:21:10.259Z,714.26
2017-12-03T08:22:10.776Z,714.22
2017-12-03T08:23:11.191Z,714.22
2017-12-03T08:24:11.666Z,714.24
2017-12-03T08:25:12.122Z,714.26
2017-12-03T08:26:12.583Z,714.21
2017-12-03T08:27:13.094Z,714.23
2017-12-03T08:28:13.546Z,714.30
2017-12-03T08:29:14.378Z,714.27
2017-12-03T08:30:14.445Z,714.29
2017-12-03T08:31:15.296Z,714.27
2017-12-03T08:32:15.405Z,714.25
2017-12-03T08:33:15.865Z,714.25
2017-12-03T08:36:17.264Z,714.26
2017-12-03T08:37:17.864Z,714.29
2017-12-03T08:38:18.170Z,714.31
2017-12-03T08:39:18.660Z,714.26
2017-12-03T08:40:19.095Z,714.29
2017-12-03T08:42:20.035Z,714.37
2017-12-03T08:43:20.501Z,714.35
2017-12-03T08:44:20.964Z,714.45
2017-12-03T08:45:21.428Z,714.36
2017-12-03T08:48:22.990Z,714.39
2017-12-03T08:49:23.299Z,714.46
2017-12-03T08:50:23.772Z,714.45
2017-12-03T08:51:24.226Z,714.39
2017-12-03T08:52:36.784Z,714.47
2017-12-03T08:53:25.160Z,714.52
2017-12-03T08:54:25.632Z,714.41
2017-12-03T08:55:26.099Z,714.41
2017-12-03T08:57:38.847Z,714.49
2017-12-03T08:58:27.500Z,714.48
2017-12-03T08:59:27.969Z,714.48
2017-12-03T09:00:28.434Z,714.51
2017-12-03T09:01:29.058Z,714.47
2017-12-03T09:02:29.368Z,714.55
2017-12-03T09:03:29.831Z,714.51
2017-12-03T09:04:30.304Z,714.54
2017-12-03T09:05:30.774Z,714.48
2017-12-03T09:07:31.758Z,714.52
2017-12-03T09:08:32.175Z,714.46
2017-12-03T09:09:32.664Z,714.48
2017-12-03T09:10:33.110Z,714.56
2017-12-03T09:11:33.580Z,714.57
2017-12-03T09:13:34.515Z,714.55
2017-12-03T09:14:34.975Z,714.50
2017-12-03T09:15:35.449Z,714.58
2017-12-03T09:16:35.918Z,714.59
2017-12-03T09:18:36.846Z,714.52
2017-12-03T09:19:37.321Z,714.58
2017-12-03T09:20:37.784Z,714.55
2017-12-03T09:21:38.481Z,714.58
2017-12-03T09:22:38.726Z,714.52
2017-12-03T09:24:39.829Z,714.55
2017-12-03T09:26:40.601Z,714.61
2017-12-03T09:27:41.071Z,714.56
2017-12-03T09:28:41.539Z,714.58
2017-12-03T09:30:42.474Z,714.69
2017-12-03T09:31:43.167Z,714.59
2017-12-03T09:32:43.436Z,714.65
2017-12-03T09:33:43.882Z,714.65
2017-12-03T09:36:45.290Z,714.70
2017-12-03T09:38:46.255Z,714.59
2017-12-03T09:39:46.725Z,714.64
2017-12-03T09:40:47.163Z,714.68
2017-12-03T09:41:47.632Z,714.72
2017-12-03T09:42:48.103Z,714.65
2017-12-03T09:43:48.570Z,714.71
2017-12-03T09:44:49.042Z,714.63
2017-12-03T09:45:49.510Z,714.63
2017-12-03T09:46:49.979Z,714.64
2017-12-03T09:47:50.449Z,714.68
2017-12-03T09:49:51.383Z,714.77
2017-12-03T09:50:51.850Z,714.67
2017-12-03T09:51:52.318Z,714.73
2017-12-03T09:52:53.469Z,714.70
2017-12-03T09:53:53.625Z,714.76
2017-12-03T09:54:53.730Z,714.78
2017-12-03T09:56:54.667Z,714.69
2017-12-03T09:57:56.238Z,714.71
2017-12-03T09:58:55.608Z,714.72
2017-12-03T10:00:32.727Z,714.67
2017-12-03T10:00:56.546Z,714.71
2017-12-03T10:01:57.018Z,714.70
2017-12-03T10:04:58.530Z,714.68
2017-12-03T10:05:58.902Z,714.66
2017-12-03T10:06:59.406Z,714.61
2017-12-03T10:09:00.314Z,714.64
2017-12-03T10:10:11.917Z,714.69
2017-12-03T10:11:01.260Z,714.73
2017-12-03T10:13:02.194Z,714.64
2017-12-03T10:15:03.133Z,714.70
2017-12-03T10:16:03.624Z,714.71
2017-12-03T10:17:04.078Z,714.73
2017-12-03T10:18:04.714Z,714.75
2017-12-03T10:20:05.479Z,714.74
2017-12-03T10:21:05.958Z,714.74
2017-12-03T10:22:06.421Z,714.75
2017-12-03T10:23:06.897Z,714.78
2017-12-03T10:24:07.363Z,714.71
2017-12-03T10:25:07.839Z,714.72
2017-12-03T10:27:08.784Z,714.76
2017-12-03T10:28:09.305Z,714.74
2017-12-03T10:29:09.722Z,714.74
2017-12-03T10:30:10.194Z,714.73
2017-12-03T10:31:10.663Z,714.78
2017-12-03T10:32:11.158Z,714.71
2017-12-03T10:34:12.072Z,714.69
2017-12-03T10:36:13.062Z,714.71
2017-12-03T10:37:13.489Z,714.74
2017-12-03T10:38:13.958Z,714.70
2017-12-03T10:39:14.457Z,714.70
2017-12-03T10:40:14.906Z,714.71
2017-12-03T10:42:15.911Z,714.73
2017-12-03T10:43:16.318Z,714.77
2017-12-03T10:44:16.790Z,714.78
2017-12-03T10:45:17.285Z,714.76
2017-12-03T10:46:17.732Z,714.77
2017-12-03T10:47:18.204Z,714.76
2017-12-03T10:48:18.675Z,714.74
2017-12-03T10:49:19.147Z,714.78
2017-12-03T10:50:19.620Z,714.72
2017-12-03T10:53:21.035Z,714.82
2017-12-03T10:54:21.511Z,714.79
2017-12-03T10:55:21.977Z,714.82
2017-12-03T10:56:22.448Z,714.83
2017-12-03T10:57:22.954Z,714.74
2017-12-03T10:58:23.394Z,714.72
2017-12-03T10:59:23.866Z,714.71
2017-12-03T11:00:24.331Z,714.71
2017-12-03T11:03:25.753Z,714.72
2017-12-03T11:04:26.220Z,714.78
2017-12-03T11:06:27.249Z,714.79
2017-12-03T11:08:28.115Z,714.82
2017-12-03T11:09:28.749Z,714.76
2017-12-03T11:10:29.092Z,714.78
2017-12-03T11:11:29.529Z,714.81
2017-12-03T11:13:30.477Z,714.76
2017-12-03T11:14:30.947Z,714.73
2017-12-03T11:15:31.423Z,714.76
2017-12-03T11:16:31.947Z,714.77
2017-12-03T11:17:32.365Z,714.72
2017-12-03T11:18:32.837Z,714.89
2017-12-03T11:19:33.309Z,714.80
2017-12-03T11:21:34.306Z,714.73
2017-12-03T11:22:34.722Z,714.77
2017-12-03T11:23:35.199Z,714.75
2017-12-03T11:24:35.673Z,714.75
2017-12-03T11:26:47.946Z,714.74
2017-12-03T11:27:37.107Z,714.76
2017-12-03T11:28:37.563Z,714.76
2017-12-03T11:29:38.036Z,714.70
2017-12-03T11:30:38.902Z,714.72
2017-12-03T11:31:39.031Z,714.74
2017-12-03T11:33:39.926Z,714.68
2017-12-03T11:34:40.399Z,714.68
2017-12-03T11:35:40.899Z,714.66
2017-12-03T11:37:41.980Z,714.69
2017-12-03T11:38:42.289Z,714.66
2017-12-03T11:39:42.755Z,714.70
2017-12-03T11:40:43.236Z,714.65
2017-12-03T11:41:43.789Z,714.63
2017-12-03T11:43:44.652Z,714.70
2017-12-03T11:44:45.122Z,714.72
2017-12-03T11:45:45.599Z,714.72
2017-12-03T11:47:46.542Z,714.69
2017-12-03T11:48:47.019Z,714.70
2017-12-03T11:49:47.489Z,714.77
2017-12-03T11:50:47.964Z,714.66
2017-12-03T11:51:48.434Z,714.66
2017-12-03T11:52:48.925Z,714.70
2017-12-03T11:53:49.375Z,714.73
2017-12-03T11:54:49.854Z,714.70
2017-12-03T11:55:50.327Z,714.74
2017-12-03T11:56:50.803Z,714.63
2017-12-03T11:57:51.272Z,714.68
2017-12-03T11:58:51.747Z,714.61
2017-12-03T11:59:52.212Z,714.63
2017-12-03T12:00:52.694Z,714.62
2017-12-03T12:01:53.193Z,714.59
2017-12-03T12:03:54.109Z,714.63
2017-12-03T12:04:54.584Z,714.56
2017-12-03T12:07:55.997Z,714.57
2017-12-03T12:08:56.469Z,714.63
2017-12-03T12:09:56.949Z,714.65
2017-12-03T12:10:57.422Z,714.60
2017-12-03T12:12:58.415Z,714.58
2017-12-03T12:13:59.009Z,714.62
2017-12-03T12:14:59.316Z,714.61
2017-12-03T12:15:59.789Z,714.57
2017-12-03T12:19:01.209Z,714.57
2017-12-03T12:20:01.837Z,714.59
2017-12-03T12:21:02.153Z,714.62
2017-12-03T12:22:02.625Z,714.57
2017-12-03T12:23:03.100Z,714.59
2017-12-03T12:25:04.047Z,714.62
2017-12-03T12:26:04.512Z,714.56
2017-12-03T12:28:05.468Z,714.58
2017-12-03T12:30:06.410Z,714.58
2017-12-03T12:31:06.883Z,714.59
2017-12-03T12:32:07.401Z,714.56
2017-12-03T12:33:07.882Z,714.57
2017-12-03T12:34:08.332Z,714.56
2017-12-03T12:36:09.253Z,714.58
2017-12-03T12:37:09.752Z,714.57
2017-12-03T12:40:11.311Z,714.61
2017-12-03T12:42:12.090Z,714.57
2017-12-03T12:43:12.560Z,714.61
2017-12-03T12:45:13.669Z,714.70
2017-12-03T12:46:14.019Z,714.66
2017-12-03T12:47:14.457Z,714.64
2017-12-03T12:48:15.089Z,714.64
2017-12-03T12:49:27.033Z,714.62
2017-12-03T12:50:15.908Z,714.65
2017-12-03T12:51:16.377Z,714.62
2017-12-03T12:53:17.289Z,714.66
2017-12-03T12:54:29.063Z,714.69
2017-12-03T12:55:18.242Z,714.70
2017-12-03T13:01:21.245Z,714.69
2017-12-03T13:02:21.549Z,714.67
2017-12-03T13:03:22.028Z,714.70
2017-12-03T13:04:22.526Z,714.67
2017-12-03T13:06:23.445Z,714.64
2017-12-03T13:07:24.081Z,714.65
2017-12-03T13:08:24.423Z,714.68
2017-12-03T13:09:24.862Z,714.70
2017-12-03T13:12:26.281Z,714.69
2017-12-03T13:13:26.760Z,714.69
2017-12-03T13:14:27.233Z,714.69
2017-12-03T13:15:27.759Z,714.68
2017-12-03T13:16:28.385Z,714.67
2017-12-03T13:17:28.658Z,714.71
2017-12-03T13:19:29.594Z,714.65
2017-12-03T13:20:30.123Z,714.70
2017-12-03T13:21:30.541Z,714.73
2017-12-03T13:22:31.024Z,714.65
2017-12-03T13:23:31.496Z,714.77
2017-12-03T13:24:31.998Z,714.74
2017-12-03T13:26:32.915Z,714.77
2017-12-03T13:27:33.387Z,714.71
2017-12-03T13:28:33.863Z,714.74
2017-12-03T13:29:34.335Z,714.80
2017-12-03T13:30:34.808Z,714.89
2017-12-03T13:31:35.280Z,714.84
2017-12-03T13:32:35.915Z,714.94
2017-12-03T13:33:36.228Z,714.86
2017-12-03T13:34:36.708Z,714.90
2017-12-03T13:35:37.225Z,714.87
2017-12-03T13:36:37.642Z,714.85
2017-12-03T13:37:38.125Z,714.87
2017-12-03T13:38:38.604Z,714.91
2017-12-03T13:39:39.445Z,714.89
2017-12-03T13:40:39.538Z,714.90
2017-12-03T13:43:40.962Z,714.85
2017-12-03T13:44:41.427Z,714.90
2017-12-03T13:45:41.964Z,714.97
2017-12-03T13:46:42.381Z,714.92
2017-12-03T13:47:42.881Z,714.92
2017-12-03T13:48:43.322Z,714.90
2017-12-03T13:49:43.823Z,714.93
2017-12-03T13:50:44.326Z,715.01
2017-12-03T13:51:44.747Z,714.98
2017-12-03T13:52:45.249Z,714.95
2017-12-03T13:53:45.697Z,714.82
2017-12-03T13:54:46.160Z,714.97
2017-12-03T13:55:58.126Z,715.00
2017-12-03T13:56:47.115Z,714.91
2017-12-03T13:58:48.054Z,714.92
2017-12-03T14:00:49.052Z,714.91
2017-12-03T14:01:49.547Z,714.93
2017-12-03T14:02:49.954Z,714.91
2017-12-03T14:03:50.429Z,714.89
2017-12-03T14:04:50.902Z,714.91
2017-12-03T14:05:51.367Z,715.00
2017-12-03T14:06:51.875Z,715.02
2017-12-03T14:07:52.479Z,715.01
2017-12-03T14:08:52.792Z,715.00
2017-12-03T14:09:53.262Z,715.09
2017-12-03T14:10:53.815Z,715.05
2017-12-03T14:11:54.206Z,715.10
2017-12-03T14:12:54.685Z,715.05
2017-12-03T14:13:55.160Z,715.06
2017-12-03T14:14:56.014Z,714.95
2017-12-03T14:16:56.579Z,715.09
2017-12-03T14:17:57.082Z,715.06
2017-12-03T14:18:57.686Z,715.08
2017-12-03T14:19:57.999Z,715.06
2017-12-03T14:20:58.478Z,715.04
2017-12-03T14:21:58.944Z,715.00
2017-12-03T14:22:59.417Z,714.99
2017-12-03T14:23:59.922Z,715.01
2017-12-03T14:25:00.356Z,715.09
2017-12-03T14:26:12.150Z,715.12
2017-12-03T14:28:01.783Z,715.14
2017-12-03T14:30:02.729Z,715.12
2017-12-03T14:31:03.253Z,715.19
2017-12-03T14:32:03.676Z,715.21
2017-12-03T14:33:04.140Z,715.20
2017-12-03T14:35:05.498Z,715.13
2017-12-03T14:36:17.158Z,715.18
2017-12-03T14:37:06.035Z,715.14
2017-12-03T14:38:06.536Z,715.15
2017-12-03T14:39:06.982Z,715.11
2017-12-03T14:40:07.486Z,715.13
2017-12-03T14:41:18.145Z,715.17
2017-12-03T14:42:08.395Z,715.14
2017-12-03T14:43:08.869Z,715.16
2017-12-03T14:44:09.349Z,715.12
2017-12-03T14:45:09.984Z,715.19
2017-12-03T14:46:10.300Z,715.19
2017-12-03T14:48:11.420Z,715.24
2017-12-03T14:49:11.708Z,715.27
2017-12-03T14:50:12.345Z,715.25
2017-12-03T14:51:12.655Z,715.31
2017-12-03T14:52:13.129Z,715.29
2017-12-03T14:54:14.102Z,715.28
2017-12-03T14:55:14.538Z,715.28
2017-12-03T14:56:15.044Z,715.28
2017-12-03T14:57:15.483Z,715.22
2017-12-03T14:58:15.962Z,715.26
2017-12-03T14:59:16.435Z,715.27
2017-12-03T15:00:16.908Z,715.35
2017-12-03T15:01:17.378Z,715.37
2017-12-03T15:02:17.864Z,715.31
2017-12-03T15:03:18.318Z,715.33
2017-12-03T15:04:18.959Z,715.30
2017-12-03T15:05:19.269Z,715.32
2017-12-03T15:07:20.207Z,715.35
2017-12-03T15:09:21.151Z,715.38
2017-12-03T15:10:21.630Z,715.40
2017-12-03T15:12:22.575Z,715.37
2017-12-03T15:13:23.048Z,715.37
2017-12-03T15:14:23.512Z,715.32
2017-12-03T15:16:36.202Z,715.34
2017-12-03T15:18:25.434Z,715.34
2017-12-03T15:20:26.374Z,715.40
2017-12-03T15:21:38.206Z,715.34